sensor_id;sensor_type;location;lat;lon;timestamp;P1;durP1;ratioP1;P2;durP2;ratioP2
17251;SDS011;8742;51.716;8.790;2024-03-22T00:00:17;44.63;;;24.40;;
17251;SDS011;8742;51.716;8.790;2024-03-22T00:02:43;41.00;;;22.70;;
17251;SDS011;8742;51.716;8.790;2024-03-22T00:05:09;45.70;;;24.47;;
17251;SDS011;8742;51.716;8.790;2024-03-22T00:07:36;42.63;;;23.23;;
17251;SDS011;8742;51.716;8.790;2024-03-22T00:10:04;44.83;;;24.77;;
17251;SDS011;8742;51.716;8.790;2024-03-22T00:12:30;42.13;;;24.90;;
17251;SDS011;8742;51.716;8.790;2024-03-22T00:14:57;43.17;;;23.90;;
17251;SDS011;8742;51.716;8.790;2024-03-22T00:17:23;41.87;;;22.93;;
17251;SDS011;8742;51.716;8.790;2024-03-22T00:19:50;43.03;;;23.00;;
17251;SDS011;8742;51.716;8.790;2024-03-22T00:22:16;43.97;;;24.03;;
17251;SDS011;8742;51.716;8.790;2024-03-22T00:24:44;39.57;;;24.20;;
17251;SDS011;8742;51.716;8.790;2024-03-22T00:27:10;40.13;;;22.60;;
17251;SDS011;8742;51.716;8.790;2024-03-22T00:29:37;44.20;;;24.40;;
17251;SDS011;8742;51.716;8.790;2024-03-22T00:32:04;43.73;;;24.97;;
17251;SDS011;8742;51.716;8.790;2024-03-22T00:34:32;44.30;;;23.90;;
17251;SDS011;8742;51.716;8.790;2024-03-22T00:36:58;45.27;;;24.30;;
17251;SDS011;8742;51.716;8.790;2024-03-22T00:39:25;45.03;;;23.80;;
17251;SDS011;8742;51.716;8.790;2024-03-22T00:41:52;50.33;;;24.23;;
17251;SDS011;8742;51.716;8.790;2024-03-22T00:44:19;43.17;;;23.47;;
17251;SDS011;8742;51.716;8.790;2024-03-22T00:46:45;49.43;;;24.60;;
17251;SDS011;8742;51.716;8.790;2024-03-22T00:49:11;41.70;;;23.07;;
17251;SDS011;8742;51.716;8.790;2024-03-22T00:51:38;42.27;;;23.47;;
17251;SDS011;8742;51.716;8.790;2024-03-22T00:54:04;40.30;;;23.07;;
17251;SDS011;8742;51.716;8.790;2024-03-22T00:56:30;45.17;;;24.40;;
17251;SDS011;8742;51.716;8.790;2024-03-22T00:58:59;46.33;;;24.40;;
17251;SDS011;8742;51.716;8.790;2024-03-22T01:01:24;43.13;;;23.57;;
17251;SDS011;8742;51.716;8.790;2024-03-22T01:03:51;46.17;;;24.13;;
17251;SDS011;8742;51.716;8.790;2024-03-22T01:06:17;52.83;;;28.33;;
17251;SDS011;8742;51.716;8.790;2024-03-22T01:08:48;46.03;;;23.57;;
17251;SDS011;8742;51.716;8.790;2024-03-22T01:11:14;47.17;;;26.17;;
17251;SDS011;8742;51.716;8.790;2024-03-22T01:13:41;44.93;;;25.60;;
17251;SDS011;8742;51.716;8.790;2024-03-22T01:16:08;44.07;;;23.50;;
17251;SDS011;8742;51.716;8.790;2024-03-22T01:18:35;49.37;;;25.57;;
17251;SDS011;8742;51.716;8.790;2024-03-22T01:21:01;45.80;;;23.10;;
17251;SDS011;8742;51.716;8.790;2024-03-22T01:23:28;48.10;;;25.40;;
17251;SDS011;8742;51.716;8.790;2024-03-22T01:25:54;51.43;;;25.50;;
17251;SDS011;8742;51.716;8.790;2024-03-22T01:28:21;50.53;;;24.63;;
17251;SDS011;8742;51.716;8.790;2024-03-22T01:30:47;45.43;;;24.70;;
17251;SDS011;8742;51.716;8.790;2024-03-22T01:33:15;48.27;;;24.57;;
17251;SDS011;8742;51.716;8.790;2024-03-22T01:35:41;45.17;;;23.80;;
17251;SDS011;8742;51.716;8.790;2024-03-22T01:38:07;52.17;;;23.53;;
17251;SDS011;8742;51.716;8.790;2024-03-22T01:40:33;46.63;;;25.30;;
17251;SDS011;8742;51.716;8.790;2024-03-22T01:43:00;43.97;;;24.50;;
17251;SDS011;8742;51.716;8.790;2024-03-22T01:45:27;43.93;;;24.37;;
17251;SDS011;8742;51.716;8.790;2024-03-22T01:47:58;50.07;;;24.77;;
17251;SDS011;8742;51.716;8.790;2024-03-22T01:50:27;48.03;;;23.97;;
17251;SDS011;8742;51.716;8.790;2024-03-22T01:52:54;50.63;;;24.70;;
17251;SDS011;8742;51.716;8.790;2024-03-22T01:55:20;47.70;;;23.80;;
17251;SDS011;8742;51.716;8.790;2024-03-22T01:57:47;44.60;;;24.27;;
17251;SDS011;8742;51.716;8.790;2024-03-22T02:00:16;42.83;;;24.03;;
17251;SDS011;8742;51.716;8.790;2024-03-22T02:02:43;46.87;;;24.00;;
17251;SDS011;8742;51.716;8.790;2024-03-22T02:05:12;46.90;;;23.60;;
17251;SDS011;8742;51.716;8.790;2024-03-22T02:07:41;45.83;;;23.10;;
17251;SDS011;8742;51.716;8.790;2024-03-22T02:10:08;47.63;;;23.20;;
17251;SDS011;8742;51.716;8.790;2024-03-22T02:12:37;52.80;;;25.03;;
17251;SDS011;8742;51.716;8.790;2024-03-22T02:15:03;46.83;;;22.50;;
17251;SDS011;8742;51.716;8.790;2024-03-22T02:17:31;46.77;;;22.53;;
17251;SDS011;8742;51.716;8.790;2024-03-22T02:19:57;48.57;;;24.30;;
17251;SDS011;8742;51.716;8.790;2024-03-22T02:22:24;52.33;;;23.23;;
17251;SDS011;8742;51.716;8.790;2024-03-22T02:24:52;48.17;;;24.60;;
17251;SDS011;8742;51.716;8.790;2024-03-22T02:27:19;41.70;;;21.97;;
17251;SDS011;8742;51.716;8.790;2024-03-22T02:29:45;47.73;;;21.63;;
17251;SDS011;8742;51.716;8.790;2024-03-22T02:32:11;44.23;;;21.23;;
17251;SDS011;8742;51.716;8.790;2024-03-22T02:34:37;45.00;;;22.37;;
17251;SDS011;8742;51.716;8.790;2024-03-22T02:37:04;41.00;;;20.73;;
17251;SDS011;8742;51.716;8.790;2024-03-22T02:39:30;46.83;;;21.27;;
17251;SDS011;8742;51.716;8.790;2024-03-22T02:41:58;42.50;;;22.53;;
17251;SDS011;8742;51.716;8.790;2024-03-22T02:44:24;44.57;;;20.53;;
17251;SDS011;8742;51.716;8.790;2024-03-22T02:46:51;43.70;;;20.87;;
17251;SDS011;8742;51.716;8.790;2024-03-22T02:49:17;39.27;;;18.27;;
17251;SDS011;8742;51.716;8.790;2024-03-22T02:51:43;42.10;;;20.43;;
17251;SDS011;8742;51.716;8.790;2024-03-22T02:54:09;41.53;;;19.13;;
17251;SDS011;8742;51.716;8.790;2024-03-22T02:56:36;34.90;;;18.80;;
17251;SDS011;8742;51.716;8.790;2024-03-22T02:59:03;34.53;;;17.03;;
17251;SDS011;8742;51.716;8.790;2024-03-22T03:01:30;35.67;;;17.80;;
17251;SDS011;8742;51.716;8.790;2024-03-22T03:03:56;34.43;;;17.20;;
17251;SDS011;8742;51.716;8.790;2024-03-22T03:06:23;34.00;;;17.70;;
17251;SDS011;8742;51.716;8.790;2024-03-22T03:08:49;39.07;;;18.90;;
17251;SDS011;8742;51.716;8.790;2024-03-22T03:11:16;32.83;;;17.30;;
17251;SDS011;8742;51.716;8.790;2024-03-22T03:13:42;37.30;;;20.60;;
17251;SDS011;8742;51.716;8.790;2024-03-22T03:16:10;34.63;;;18.80;;
17251;SDS011;8742;51.716;8.790;2024-03-22T03:18:36;40.03;;;19.00;;
17251;SDS011;8742;51.716;8.790;2024-03-22T03:21:02;35.77;;;19.17;;
17251;SDS011;8742;51.716;8.790;2024-03-22T03:23:28;38.17;;;18.17;;
17251;SDS011;8742;51.716;8.790;2024-03-22T03:25:55;37.77;;;19.17;;
17251;SDS011;8742;51.716;8.790;2024-03-22T03:28:21;41.90;;;19.07;;
17251;SDS011;8742;51.716;8.790;2024-03-22T03:30:51;35.00;;;16.83;;
17251;SDS011;8742;51.716;8.790;2024-03-22T03:33:18;36.37;;;19.10;;
17251;SDS011;8742;51.716;8.790;2024-03-22T03:35:45;38.70;;;18.70;;
17251;SDS011;8742;51.716;8.790;2024-03-22T03:38:11;38.43;;;17.80;;
17251;SDS011;8742;51.716;8.790;2024-03-22T03:40:38;40.97;;;19.03;;
17251;SDS011;8742;51.716;8.790;2024-03-22T03:43:04;37.97;;;20.47;;
17251;SDS011;8742;51.716;8.790;2024-03-22T03:45:31;38.17;;;19.03;;
17251;SDS011;8742;51.716;8.790;2024-03-22T03:47:56;36.97;;;19.80;;
17251;SDS011;8742;51.716;8.790;2024-03-22T03:50:25;39.93;;;20.37;;
17251;SDS011;8742;51.716;8.790;2024-03-22T03:52:50;34.87;;;19.27;;
17251;SDS011;8742;51.716;8.790;2024-03-22T03:55:17;37.13;;;19.97;;
17251;SDS011;8742;51.716;8.790;2024-03-22T03:57:43;36.37;;;19.17;;
17251;SDS011;8742;51.716;8.790;2024-03-22T04:00:10;36.87;;;18.23;;
17251;SDS011;8742;51.716;8.790;2024-03-22T04:02:37;38.63;;;18.67;;
17251;SDS011;8742;51.716;8.790;2024-03-22T04:05:04;34.80;;;18.80;;
17251;SDS011;8742;51.716;8.790;2024-03-22T04:07:31;37.30;;;18.03;;
17251;SDS011;8742;51.716;8.790;2024-03-22T04:09:58;35.57;;;18.23;;
17251;SDS011;8742;51.716;8.790;2024-03-22T04:12:25;34.50;;;17.63;;
17251;SDS011;8742;51.716;8.790;2024-03-22T04:14:52;39.40;;;19.97;;
17251;SDS011;8742;51.716;8.790;2024-03-22T04:17:18;35.13;;;18.63;;
17251;SDS011;8742;51.716;8.790;2024-03-22T04:19:45;37.00;;;18.27;;
17251;SDS011;8742;51.716;8.790;2024-03-22T04:22:10;35.67;;;18.47;;
17251;SDS011;8742;51.716;8.790;2024-03-22T04:24:39;37.77;;;17.83;;
17251;SDS011;8742;51.716;8.790;2024-03-22T04:27:04;36.13;;;17.83;;
17251;SDS011;8742;51.716;8.790;2024-03-22T04:29:32;36.37;;;18.50;;
17251;SDS011;8742;51.716;8.790;2024-03-22T04:31:58;34.03;;;17.63;;
17251;SDS011;8742;51.716;8.790;2024-03-22T04:34:25;40.93;;;18.57;;
17251;SDS011;8742;51.716;8.790;2024-03-22T04:36:53;38.73;;;18.57;;
17251;SDS011;8742;51.716;8.790;2024-03-22T04:39:20;38.30;;;19.03;;
17251;SDS011;8742;51.716;8.790;2024-03-22T04:41:50;37.93;;;19.40;;
17251;SDS011;8742;51.716;8.790;2024-03-22T04:44:17;36.63;;;18.90;;
17251;SDS011;8742;51.716;8.790;2024-03-22T04:46:44;38.77;;;17.73;;
17251;SDS011;8742;51.716;8.790;2024-03-22T04:49:10;37.93;;;16.93;;
17251;SDS011;8742;51.716;8.790;2024-03-22T04:51:36;33.13;;;15.80;;
17251;SDS011;8742;51.716;8.790;2024-03-22T04:54:02;33.33;;;16.60;;
17251;SDS011;8742;51.716;8.790;2024-03-22T04:56:29;35.07;;;17.30;;
17251;SDS011;8742;51.716;8.790;2024-03-22T04:58:57;34.43;;;17.60;;
17251;SDS011;8742;51.716;8.790;2024-03-22T05:01:24;32.60;;;16.80;;
17251;SDS011;8742;51.716;8.790;2024-03-22T05:03:50;32.20;;;13.57;;
17251;SDS011;8742;51.716;8.790;2024-03-22T05:06:17;31.10;;;15.63;;
17251;SDS011;8742;51.716;8.790;2024-03-22T05:08:52;35.00;;;16.17;;
17251;SDS011;8742;51.716;8.790;2024-03-22T05:11:19;30.77;;;15.77;;
17251;SDS011;8742;51.716;8.790;2024-03-22T05:13:45;27.17;;;15.13;;
17251;SDS011;8742;51.716;8.790;2024-03-22T05:16:13;37.03;;;16.37;;
17251;SDS011;8742;51.716;8.790;2024-03-22T05:18:39;30.73;;;14.80;;
17251;SDS011;8742;51.716;8.790;2024-03-22T05:21:06;33.20;;;16.00;;
17251;SDS011;8742;51.716;8.790;2024-03-22T05:23:32;29.70;;;15.43;;
17251;SDS011;8742;51.716;8.790;2024-03-22T05:25:59;35.23;;;16.00;;
17251;SDS011;8742;51.716;8.790;2024-03-22T05:28:25;33.37;;;15.67;;
17251;SDS011;8742;51.716;8.790;2024-03-22T05:30:51;36.73;;;15.63;;
17251;SDS011;8742;51.716;8.790;2024-03-22T05:33:19;29.90;;;14.70;;
17251;SDS011;8742;51.716;8.790;2024-03-22T05:35:46;32.20;;;15.53;;
17251;SDS011;8742;51.716;8.790;2024-03-22T05:38:12;32.00;;;15.93;;
17251;SDS011;8742;51.716;8.790;2024-03-22T05:40:43;30.47;;;14.27;;
17251;SDS011;8742;51.716;8.790;2024-03-22T05:43:12;28.83;;;14.97;;
17251;SDS011;8742;51.716;8.790;2024-03-22T05:45:39;27.57;;;14.27;;
17251;SDS011;8742;51.716;8.790;2024-03-22T05:48:05;30.10;;;14.07;;
17251;SDS011;8742;51.716;8.790;2024-03-22T05:50:35;26.00;;;13.53;;
17251;SDS011;8742;51.716;8.790;2024-03-22T05:53:01;31.37;;;15.40;;
17251;SDS011;8742;51.716;8.790;2024-03-22T05:55:29;28.80;;;14.10;;
17251;SDS011;8742;51.716;8.790;2024-03-22T05:57:56;33.23;;;15.40;;
17251;SDS011;8742;51.716;8.790;2024-03-22T06:00:23;29.57;;;14.53;;
17251;SDS011;8742;51.716;8.790;2024-03-22T06:02:49;29.30;;;14.93;;
17251;SDS011;8742;51.716;8.790;2024-03-22T06:05:19;25.93;;;14.53;;
17251;SDS011;8742;51.716;8.790;2024-03-22T06:07:49;34.00;;;16.93;;
17251;SDS011;8742;51.716;8.790;2024-03-22T06:10:16;32.17;;;16.10;;
17251;SDS011;8742;51.716;8.790;2024-03-22T06:12:42;30.27;;;13.93;;
17251;SDS011;8742;51.716;8.790;2024-03-22T06:15:09;29.77;;;15.17;;
17251;SDS011;8742;51.716;8.790;2024-03-22T06:17:35;26.57;;;14.53;;
17251;SDS011;8742;51.716;8.790;2024-03-22T06:20:02;35.17;;;15.40;;
17251;SDS011;8742;51.716;8.790;2024-03-22T06:22:29;30.37;;;15.43;;
17251;SDS011;8742;51.716;8.790;2024-03-22T06:24:58;29.10;;;14.77;;
17251;SDS011;8742;51.716;8.790;2024-03-22T06:27:23;25.17;;;13.43;;
17251;SDS011;8742;51.716;8.790;2024-03-22T06:29:50;34.10;;;15.83;;
17251;SDS011;8742;51.716;8.790;2024-03-22T06:32:16;24.77;;;13.93;;
17251;SDS011;8742;51.716;8.790;2024-03-22T06:34:43;31.47;;;14.93;;
17251;SDS011;8742;51.716;8.790;2024-03-22T06:37:09;33.30;;;16.53;;
17251;SDS011;8742;51.716;8.790;2024-03-22T06:39:47;25.50;;;14.30;;
17251;SDS011;8742;51.716;8.790;2024-03-22T06:42:14;28.23;;;14.37;;
17251;SDS011;8742;51.716;8.790;2024-03-22T06:44:41;34.00;;;14.87;;
17251;SDS011;8742;51.716;8.790;2024-03-22T06:47:07;28.20;;;15.17;;
17251;SDS011;8742;51.716;8.790;2024-03-22T06:49:34;26.23;;;14.40;;
17251;SDS011;8742;51.716;8.790;2024-03-22T06:52:00;29.63;;;15.37;;
17251;SDS011;8742;51.716;8.790;2024-03-22T06:54:27;29.90;;;13.97;;
17251;SDS011;8742;51.716;8.790;2024-03-22T06:56:52;30.17;;;13.70;;
17251;SDS011;8742;51.716;8.790;2024-03-22T06:59:21;24.50;;;14.03;;
17251;SDS011;8742;51.716;8.790;2024-03-22T07:01:47;29.07;;;14.87;;
17251;SDS011;8742;51.716;8.790;2024-03-22T07:04:14;25.90;;;14.27;;
17251;SDS011;8742;51.716;8.790;2024-03-22T07:06:40;25.07;;;14.37;;
17251;SDS011;8742;51.716;8.790;2024-03-22T07:09:17;23.93;;;14.23;;
17251;SDS011;8742;51.716;8.790;2024-03-22T07:11:43;24.43;;;13.80;;
17251;SDS011;8742;51.716;8.790;2024-03-22T07:14:10;32.20;;;14.10;;
17251;SDS011;8742;51.716;8.790;2024-03-22T07:16:37;26.83;;;13.27;;
17251;SDS011;8742;51.716;8.790;2024-03-22T07:19:04;26.33;;;14.90;;
17251;SDS011;8742;51.716;8.790;2024-03-22T07:21:30;27.47;;;14.57;;
17251;SDS011;8742;51.716;8.790;2024-03-22T07:23:57;27.00;;;13.50;;
17251;SDS011;8742;51.716;8.790;2024-03-22T07:26:23;27.37;;;14.27;;
17251;SDS011;8742;51.716;8.790;2024-03-22T07:28:50;22.33;;;12.70;;
17251;SDS011;8742;51.716;8.790;2024-03-22T07:31:16;23.17;;;12.77;;
17251;SDS011;8742;51.716;8.790;2024-03-22T07:36:25;22.43;;;12.03;;
17251;SDS011;8742;51.716;8.790;2024-03-22T07:38:55;19.43;;;12.20;;
17251;SDS011;8742;51.716;8.790;2024-03-22T07:41:31;29.27;;;13.00;;
17251;SDS011;8742;51.716;8.790;2024-03-22T07:43:58;25.47;;;12.97;;
17251;SDS011;8742;51.716;8.790;2024-03-22T07:46:25;19.30;;;11.87;;
17251;SDS011;8742;51.716;8.790;2024-03-22T07:48:52;22.47;;;11.30;;
17251;SDS011;8742;51.716;8.790;2024-03-22T07:51:20;23.17;;;11.73;;
17251;SDS011;8742;51.716;8.790;2024-03-22T07:53:47;21.30;;;11.80;;
17251;SDS011;8742;51.716;8.790;2024-03-22T07:56:17;22.10;;;11.23;;
17251;SDS011;8742;51.716;8.790;2024-03-22T07:58:47;20.43;;;11.13;;
17251;SDS011;8742;51.716;8.790;2024-03-22T08:01:13;20.90;;;10.63;;
17251;SDS011;8742;51.716;8.790;2024-03-22T08:03:40;21.37;;;10.73;;
17251;SDS011;8742;51.716;8.790;2024-03-22T08:06:06;21.27;;;10.53;;
17251;SDS011;8742;51.716;8.790;2024-03-22T08:08:35;21.67;;;10.23;;
17251;SDS011;8742;51.716;8.790;2024-03-22T08:11:01;23.40;;;10.30;;
17251;SDS011;8742;51.716;8.790;2024-03-22T08:14:07;17.30;;;9.53;;
17251;SDS011;8742;51.716;8.790;2024-03-22T08:16:46;18.40;;;9.73;;
17251;SDS011;8742;51.716;8.790;2024-03-22T08:19:18;16.80;;;8.83;;
17251;SDS011;8742;51.716;8.790;2024-03-22T08:21:45;17.57;;;9.33;;
17251;SDS011;8742;51.716;8.790;2024-03-22T08:24:12;17.20;;;8.67;;
17251;SDS011;8742;51.716;8.790;2024-03-22T08:26:39;17.07;;;8.73;;
17251;SDS011;8742;51.716;8.790;2024-03-22T08:29:05;20.80;;;9.60;;
17251;SDS011;8742;51.716;8.790;2024-03-22T08:31:32;16.67;;;9.27;;
17251;SDS011;8742;51.716;8.790;2024-03-22T08:33:57;17.23;;;9.00;;
17251;SDS011;8742;51.716;8.790;2024-03-22T08:36:26;18.83;;;9.40;;
17251;SDS011;8742;51.716;8.790;2024-03-22T08:38:52;18.70;;;8.80;;
17251;SDS011;8742;51.716;8.790;2024-03-22T08:41:21;15.23;;;9.37;;
17251;SDS011;8742;51.716;8.790;2024-03-22T08:43:46;16.43;;;8.73;;
17251;SDS011;8742;51.716;8.790;2024-03-22T08:46:13;16.00;;;9.20;;
17251;SDS011;8742;51.716;8.790;2024-03-22T08:48:39;14.67;;;8.83;;
17251;SDS011;8742;51.716;8.790;2024-03-22T08:51:06;17.73;;;9.00;;
17251;SDS011;8742;51.716;8.790;2024-03-22T08:53:32;16.60;;;9.33;;
17251;SDS011;8742;51.716;8.790;2024-03-22T08:55:58;22.70;;;10.23;;
17251;SDS011;8742;51.716;8.790;2024-03-22T08:58:25;20.13;;;10.17;;
17251;SDS011;8742;51.716;8.790;2024-03-22T09:00:53;18.40;;;10.77;;
17251;SDS011;8742;51.716;8.790;2024-03-22T09:03:19;18.30;;;9.33;;
17251;SDS011;8742;51.716;8.790;2024-03-22T09:05:46;26.27;;;11.77;;
17251;SDS011;8742;51.716;8.790;2024-03-22T09:08:12;18.77;;;10.40;;
17251;SDS011;8742;51.716;8.790;2024-03-22T09:10:39;21.60;;;10.93;;
17251;SDS011;8742;51.716;8.790;2024-03-22T09:13:05;17.83;;;10.30;;
17251;SDS011;8742;51.716;8.790;2024-03-22T09:15:33;23.80;;;10.20;;
17251;SDS011;8742;51.716;8.790;2024-03-22T09:17:58;18.33;;;10.53;;
17251;SDS011;8742;51.716;8.790;2024-03-22T09:20:25;20.37;;;11.00;;
17251;SDS011;8742;51.716;8.790;2024-03-22T09:22:51;18.27;;;10.10;;
17251;SDS011;8742;51.716;8.790;2024-03-22T09:25:18;20.10;;;11.03;;
17251;SDS011;8742;51.716;8.790;2024-03-22T09:27:44;26.77;;;10.77;;
17251;SDS011;8742;51.716;8.790;2024-03-22T09:30:11;20.60;;;11.00;;
17251;SDS011;8742;51.716;8.790;2024-03-22T09:32:39;19.73;;;10.30;;
17251;SDS011;8742;51.716;8.790;2024-03-22T09:35:07;21.60;;;11.00;;
17251;SDS011;8742;51.716;8.790;2024-03-22T09:37:33;19.93;;;10.73;;
17251;SDS011;8742;51.716;8.790;2024-03-22T09:40:00;17.07;;;9.77;;
17251;SDS011;8742;51.716;8.790;2024-03-22T09:42:32;15.33;;;10.30;;
17251;SDS011;8742;51.716;8.790;2024-03-22T09:45:04;15.57;;;9.77;;
17251;SDS011;8742;51.716;8.790;2024-03-22T09:47:33;19.87;;;10.10;;
17251;SDS011;8742;51.716;8.790;2024-03-22T09:50:01;17.40;;;9.93;;
17251;SDS011;8742;51.716;8.790;2024-03-22T09:52:31;14.13;;;8.47;;
17251;SDS011;8742;51.716;8.790;2024-03-22T09:55:00;16.30;;;8.77;;
17251;SDS011;8742;51.716;8.790;2024-03-22T09:57:29;13.07;;;8.80;;
17251;SDS011;8742;51.716;8.790;2024-03-22T09:59:57;14.83;;;8.33;;
17251;SDS011;8742;51.716;8.790;2024-03-22T10:02:24;17.23;;;8.63;;
17251;SDS011;8742;51.716;8.790;2024-03-22T10:04:52;19.90;;;9.33;;
17251;SDS011;8742;51.716;8.790;2024-03-22T10:07:19;15.93;;;8.93;;
17251;SDS011;8742;51.716;8.790;2024-03-22T10:09:46;13.97;;;9.27;;
17251;SDS011;8742;51.716;8.790;2024-03-22T10:12:12;16.93;;;9.63;;
17251;SDS011;8742;51.716;8.790;2024-03-22T10:14:42;22.97;;;9.80;;
17251;SDS011;8742;51.716;8.790;2024-03-22T10:17:08;16.80;;;9.73;;
17251;SDS011;8742;51.716;8.790;2024-03-22T10:19:35;24.70;;;11.23;;
17251;SDS011;8742;51.716;8.790;2024-03-22T10:22:02;20.27;;;10.60;;
17251;SDS011;8742;51.716;8.790;2024-03-22T10:24:31;19.77;;;10.30;;
17251;SDS011;8742;51.716;8.790;2024-03-22T10:26:58;21.80;;;11.30;;
17251;SDS011;8742;51.716;8.790;2024-03-22T10:29:25;29.03;;;11.67;;
17251;SDS011;8742;51.716;8.790;2024-03-22T10:31:51;21.67;;;11.37;;
17251;SDS011;8742;51.716;8.790;2024-03-22T10:34:20;22.93;;;11.17;;
17251;SDS011;8742;51.716;8.790;2024-03-22T10:36:47;16.03;;;10.63;;
17251;SDS011;8742;51.716;8.790;2024-03-22T10:39:16;21.03;;;11.57;;
17251;SDS011;8742;51.716;8.790;2024-03-22T10:41:44;23.10;;;11.63;;
17251;SDS011;8742;51.716;8.790;2024-03-22T10:44:12;24.00;;;12.30;;
17251;SDS011;8742;51.716;8.790;2024-03-22T10:46:37;23.80;;;12.50;;
17251;SDS011;8742;51.716;8.790;2024-03-22T10:49:09;23.43;;;12.97;;
17251;SDS011;8742;51.716;8.790;2024-03-22T10:51:40;21.37;;;12.87;;
17251;SDS011;8742;51.716;8.790;2024-03-22T10:54:08;23.10;;;12.80;;
17251;SDS011;8742;51.716;8.790;2024-03-22T10:56:34;21.43;;;12.97;;
17251;SDS011;8742;51.716;8.790;2024-03-22T10:59:04;21.60;;;12.60;;
17251;SDS011;8742;51.716;8.790;2024-03-22T11:01:31;24.97;;;12.57;;
17251;SDS011;8742;51.716;8.790;2024-03-22T11:04:04;21.43;;;12.57;;
17251;SDS011;8742;51.716;8.790;2024-03-22T11:06:31;28.37;;;13.13;;
17251;SDS011;8742;51.716;8.790;2024-03-22T11:08:59;22.03;;;12.93;;
17251;SDS011;8742;51.716;8.790;2024-03-22T11:11:25;19.60;;;12.57;;
17251;SDS011;8742;51.716;8.790;2024-03-22T11:13:56;23.87;;;13.40;;
17251;SDS011;8742;51.716;8.790;2024-03-22T11:16:24;25.00;;;13.33;;
17251;SDS011;8742;51.716;8.790;2024-03-22T11:18:51;24.50;;;13.50;;
17251;SDS011;8742;51.716;8.790;2024-03-22T11:21:16;20.47;;;12.93;;
17251;SDS011;8742;51.716;8.790;2024-03-22T11:23:44;22.97;;;12.27;;
17251;SDS011;8742;51.716;8.790;2024-03-22T11:26:11;24.23;;;12.70;;
17251;SDS011;8742;51.716;8.790;2024-03-22T11:28:38;21.30;;;12.87;;
17251;SDS011;8742;51.716;8.790;2024-03-22T11:31:04;20.20;;;12.47;;
17251;SDS011;8742;51.716;8.790;2024-03-22T11:33:32;22.63;;;12.67;;
17251;SDS011;8742;51.716;8.790;2024-03-22T11:35:58;18.10;;;12.03;;
17251;SDS011;8742;51.716;8.790;2024-03-22T11:38:25;19.37;;;12.23;;
17251;SDS011;8742;51.716;8.790;2024-03-22T11:40:52;18.37;;;12.30;;
17251;SDS011;8742;51.716;8.790;2024-03-22T11:43:20;19.90;;;12.20;;
17251;SDS011;8742;51.716;8.790;2024-03-22T11:45:46;22.07;;;12.53;;
17251;SDS011;8742;51.716;8.790;2024-03-22T11:48:14;20.30;;;11.90;;
17251;SDS011;8742;51.716;8.790;2024-03-22T11:50:41;23.73;;;12.10;;
17251;SDS011;8742;51.716;8.790;2024-03-22T11:53:08;21.63;;;12.17;;
17251;SDS011;8742;51.716;8.790;2024-03-22T11:55:35;17.93;;;10.83;;
17251;SDS011;8742;51.716;8.790;2024-03-22T11:58:02;20.33;;;11.60;;
17251;SDS011;8742;51.716;8.790;2024-03-22T12:00:28;18.90;;;12.10;;
17251;SDS011;8742;51.716;8.790;2024-03-22T12:02:55;19.67;;;11.50;;
17251;SDS011;8742;51.716;8.790;2024-03-22T12:05:21;23.97;;;11.57;;
17251;SDS011;8742;51.716;8.790;2024-03-22T12:07:52;19.77;;;11.87;;
17251;SDS011;8742;51.716;8.790;2024-03-22T12:10:18;16.93;;;10.83;;
17251;SDS011;8742;51.716;8.790;2024-03-22T12:12:45;20.87;;;11.90;;
17251;SDS011;8742;51.716;8.790;2024-03-22T12:15:11;22.90;;;11.53;;
17251;SDS011;8742;51.716;8.790;2024-03-22T12:17:38;16.70;;;11.07;;
17251;SDS011;8742;51.716;8.790;2024-03-22T12:20:05;18.53;;;10.60;;
17251;SDS011;8742;51.716;8.790;2024-03-22T12:22:33;16.80;;;10.87;;
17251;SDS011;8742;51.716;8.790;2024-03-22T12:25:00;14.97;;;9.47;;
17251;SDS011;8742;51.716;8.790;2024-03-22T12:27:29;19.33;;;9.57;;
17251;SDS011;8742;51.716;8.790;2024-03-22T12:29:55;14.13;;;9.70;;
17251;SDS011;8742;51.716;8.790;2024-03-22T12:32:22;14.90;;;9.67;;
17251;SDS011;8742;51.716;8.790;2024-03-22T12:34:47;15.90;;;8.63;;
17251;SDS011;8742;51.716;8.790;2024-03-22T12:37:14;15.60;;;8.83;;
17251;SDS011;8742;51.716;8.790;2024-03-22T12:39:41;12.27;;;8.53;;
17251;SDS011;8742;51.716;8.790;2024-03-22T12:42:09;14.70;;;8.43;;
17251;SDS011;8742;51.716;8.790;2024-03-22T12:44:35;14.77;;;9.10;;
17251;SDS011;8742;51.716;8.790;2024-03-22T12:47:01;15.93;;;8.77;;
17251;SDS011;8742;51.716;8.790;2024-03-22T12:49:28;14.73;;;8.60;;
17251;SDS011;8742;51.716;8.790;2024-03-22T12:51:56;19.17;;;9.73;;
17251;SDS011;8742;51.716;8.790;2024-03-22T12:54:22;16.00;;;9.30;;
17251;SDS011;8742;51.716;8.790;2024-03-22T12:56:50;24.23;;;10.10;;
17251;SDS011;8742;51.716;8.790;2024-03-22T12:59:17;18.80;;;10.03;;
17251;SDS011;8742;51.716;8.790;2024-03-22T13:01:44;19.70;;;10.47;;
17251;SDS011;8742;51.716;8.790;2024-03-22T13:04:10;25.13;;;10.43;;
17251;SDS011;8742;51.716;8.790;2024-03-22T13:06:37;19.63;;;10.10;;
17251;SDS011;8742;51.716;8.790;2024-03-22T13:09:03;16.83;;;10.60;;
17251;SDS011;8742;51.716;8.790;2024-03-22T13:11:30;20.63;;;11.03;;
17251;SDS011;8742;51.716;8.790;2024-03-22T13:13:56;17.47;;;10.37;;
17251;SDS011;8742;51.716;8.790;2024-03-22T13:16:25;18.30;;;10.43;;
17251;SDS011;8742;51.716;8.790;2024-03-22T13:18:51;19.07;;;11.20;;
17251;SDS011;8742;51.716;8.790;2024-03-22T13:21:18;17.93;;;11.10;;
17251;SDS011;8742;51.716;8.790;2024-03-22T13:23:44;18.07;;;11.20;;
17251;SDS011;8742;51.716;8.790;2024-03-22T13:26:11;21.87;;;11.40;;
17251;SDS011;8742;51.716;8.790;2024-03-22T13:28:37;22.33;;;11.03;;
17251;SDS011;8742;51.716;8.790;2024-03-22T13:31:05;24.43;;;13.87;;
17251;SDS011;8742;51.716;8.790;2024-03-22T13:33:32;16.57;;;11.73;;
17251;SDS011;8742;51.716;8.790;2024-03-22T13:36:00;21.73;;;12.33;;
17251;SDS011;8742;51.716;8.790;2024-03-22T13:38:26;21.77;;;12.03;;
17251;SDS011;8742;51.716;8.790;2024-03-22T13:40:53;23.17;;;13.07;;
17251;SDS011;8742;51.716;8.790;2024-03-22T13:43:20;26.90;;;13.53;;
17251;SDS011;8742;51.716;8.790;2024-03-22T13:45:47;24.63;;;13.67;;
17251;SDS011;8742;51.716;8.790;2024-03-22T13:48:18;24.20;;;13.73;;
17251;SDS011;8742;51.716;8.790;2024-03-22T13:50:50;23.10;;;13.90;;
17251;SDS011;8742;51.716;8.790;2024-03-22T13:53:16;29.10;;;15.33;;
17251;SDS011;8742;51.716;8.790;2024-03-22T13:55:43;27.97;;;15.40;;
17251;SDS011;8742;51.716;8.790;2024-03-22T13:58:09;26.17;;;15.87;;
17251;SDS011;8742;51.716;8.790;2024-03-22T14:00:36;27.70;;;15.47;;
17251;SDS011;8742;51.716;8.790;2024-03-22T14:03:02;27.83;;;15.97;;
17251;SDS011;8742;51.716;8.790;2024-03-22T14:05:29;29.63;;;15.67;;
17251;SDS011;8742;51.716;8.790;2024-03-22T14:07:57;29.07;;;16.27;;
17251;SDS011;8742;51.716;8.790;2024-03-22T14:10:24;31.50;;;16.70;;
17251;SDS011;8742;51.716;8.790;2024-03-22T14:12:51;26.00;;;16.03;;
17251;SDS011;8742;51.716;8.790;2024-03-22T14:15:18;28.63;;;16.53;;
17251;SDS011;8742;51.716;8.790;2024-03-22T14:17:44;31.90;;;15.70;;
17251;SDS011;8742;51.716;8.790;2024-03-22T14:20:11;31.57;;;16.83;;
17251;SDS011;8742;51.716;8.790;2024-03-22T14:22:38;33.53;;;16.37;;
17251;SDS011;8742;51.716;8.790;2024-03-22T14:25:07;33.20;;;16.30;;
17251;SDS011;8742;51.716;8.790;2024-03-22T14:27:33;28.17;;;16.13;;
17251;SDS011;8742;51.716;8.790;2024-03-22T14:30:01;29.70;;;16.90;;
17251;SDS011;8742;51.716;8.790;2024-03-22T14:32:30;26.07;;;17.27;;
17251;SDS011;8742;51.716;8.790;2024-03-22T14:34:57;26.97;;;17.10;;
17251;SDS011;8742;51.716;8.790;2024-03-22T14:37:23;28.80;;;17.10;;